sensor_id;sensor_type;location;lat;lon;timestamp;P1;durP1;ratioP1;P2;durP2;ratioP2
16514;SDS011;8370;52.556;7.970;2022-08-06T00:01:41;1.07;;;0.97;;
16514;SDS011;8370;52.556;7.970;2022-08-06T00:04:07;4.47;;;1.10;;
16514;SDS011;8370;52.556;7.970;2022-08-06T00:06:32;1.07;;;0.93;;
16514;SDS011;8370;52.556;7.970;2022-08-06T00:08:58;3.70;;;1.10;;
16514;SDS011;8370;52.556;7.970;2022-08-06T00:11:23;4.87;;;1.33;;
16514;SDS011;8370;52.556;7.970;2022-08-06T00:13:49;1.13;;;1.03;;
16514;SDS011;8370;52.556;7.970;2022-08-06T00:16:15;1.00;;;0.90;;
16514;SDS011;8370;52.556;7.970;2022-08-06T00:18:40;1.10;;;0.97;;
16514;SDS011;8370;52.556;7.970;2022-08-06T00:21:06;2.27;;;0.97;;
16514;SDS011;8370;52.556;7.970;2022-08-06T00:23:31;2.53;;;1.10;;
16514;SDS011;8370;52.556;7.970;2022-08-06T00:25:57;7.13;;;1.33;;
16514;SDS011;8370;52.556;7.970;2022-08-06T00:28:23;1.13;;;1.03;;
16514;SDS011;8370;52.556;7.970;2022-08-06T00:30:49;3.17;;;1.20;;
16514;SDS011;8370;52.556;7.970;2022-08-06T00:33:15;1.00;;;0.90;;
16514;SDS011;8370;52.556;7.970;2022-08-06T00:35:41;2.07;;;0.90;;
16514;SDS011;8370;52.556;7.970;2022-08-06T00:38:07;0.90;;;0.90;;
16514;SDS011;8370;52.556;7.970;2022-08-06T00:40:33;3.10;;;1.37;;
16514;SDS011;8370;52.556;7.970;2022-08-06T00:42:59;2.87;;;1.37;;
16514;SDS011;8370;52.556;7.970;2022-08-06T00:45:25;3.60;;;1.30;;
16514;SDS011;8370;52.556;7.970;2022-08-06T00:47:51;1.60;;;1.40;;
16514;SDS011;8370;52.556;7.970;2022-08-06T00:50:17;2.43;;;1.30;;
16514;SDS011;8370;52.556;7.970;2022-08-06T00:52:42;1.30;;;1.20;;
16514;SDS011;8370;52.556;7.970;2022-08-06T00:55:10;1.93;;;1.30;;
16514;SDS011;8370;52.556;7.970;2022-08-06T00:57:36;1.30;;;1.20;;
16514;SDS011;8370;52.556;7.970;2022-08-06T01:00:03;1.60;;;1.23;;
16514;SDS011;8370;52.556;7.970;2022-08-06T01:02:29;3.27;;;1.00;;
16514;SDS011;8370;52.556;7.970;2022-08-06T01:04:55;2.43;;;1.30;;
16514;SDS011;8370;52.556;7.970;2022-08-06T01:07:20;1.30;;;1.20;;
16514;SDS011;8370;52.556;7.970;2022-08-06T01:09:46;2.70;;;1.20;;
16514;SDS011;8370;52.556;7.970;2022-08-06T01:12:11;1.43;;;1.33;;
16514;SDS011;8370;52.556;7.970;2022-08-06T01:14:36;2.53;;;1.20;;
16514;SDS011;8370;52.556;7.970;2022-08-06T01:17:02;3.20;;;1.40;;
16514;SDS011;8370;52.556;7.970;2022-08-06T01:22:42;1.67;;;1.50;;
16514;SDS011;8370;52.556;7.970;2022-08-06T01:28:49;1.40;;;1.27;;
16514;SDS011;8370;52.556;7.970;2022-08-06T01:31:21;1.30;;;1.20;;
16514;SDS011;8370;52.556;7.970;2022-08-06T01:33:59;1.93;;;1.40;;
16514;SDS011;8370;52.556;7.970;2022-08-06T01:36:32;2.13;;;1.50;;
16514;SDS011;8370;52.556;7.970;2022-08-06T01:39:27;2.67;;;1.40;;
16514;SDS011;8370;52.556;7.970;2022-08-06T01:41:55;3.33;;;1.20;;
16514;SDS011;8370;52.556;7.970;2022-08-06T01:44:23;2.27;;;1.40;;
16514;SDS011;8370;52.556;7.970;2022-08-06T01:46:54;3.23;;;1.47;;
16514;SDS011;8370;52.556;7.970;2022-08-06T01:49:24;1.90;;;1.43;;
16514;SDS011;8370;52.556;7.970;2022-08-06T01:51:52;1.63;;;1.40;;
16514;SDS011;8370;52.556;7.970;2022-08-06T01:54:21;3.33;;;1.60;;
16514;SDS011;8370;52.556;7.970;2022-08-06T01:56:49;2.90;;;1.40;;
16514;SDS011;8370;52.556;7.970;2022-08-06T01:59:18;2.77;;;1.20;;
16514;SDS011;8370;52.556;7.970;2022-08-06T02:01:47;3.10;;;1.63;;
16514;SDS011;8370;52.556;7.970;2022-08-06T02:04:14;1.33;;;1.23;;
16514;SDS011;8370;52.556;7.970;2022-08-06T02:06:43;2.50;;;1.50;;
16514;SDS011;8370;52.556;7.970;2022-08-06T02:09:11;1.40;;;1.30;;
16514;SDS011;8370;52.556;7.970;2022-08-06T02:11:41;1.50;;;1.40;;
16514;SDS011;8370;52.556;7.970;2022-08-06T02:14:12;1.73;;;1.33;;
16514;SDS011;8370;52.556;7.970;2022-08-06T02:16:39;1.97;;;1.40;;
16514;SDS011;8370;52.556;7.970;2022-08-06T02:19:06;2.83;;;1.80;;
16514;SDS011;8370;52.556;7.970;2022-08-06T02:21:34;2.43;;;1.40;;
16514;SDS011;8370;52.556;7.970;2022-08-06T02:24:04;1.30;;;1.20;;
16514;SDS011;8370;52.556;7.970;2022-08-06T02:26:31;2.43;;;1.40;;
16514;SDS011;8370;52.556;7.970;2022-08-06T02:29:00;1.20;;;1.10;;
16514;SDS011;8370;52.556;7.970;2022-08-06T02:31:28;2.73;;;1.07;;
16514;SDS011;8370;52.556;7.970;2022-08-06T02:33:54;1.27;;;1.17;;
16514;SDS011;8370;52.556;7.970;2022-08-06T02:36:23;1.67;;;1.20;;
16514;SDS011;8370;52.556;7.970;2022-08-06T02:39:02;1.20;;;1.10;;
16514;SDS011;8370;52.556;7.970;2022-08-06T02:44:09;1.27;;;1.10;;
16514;SDS011;8370;52.556;7.970;2022-08-06T02:46:50;1.97;;;1.40;;
16514;SDS011;8370;52.556;7.970;2022-08-06T02:49:23;3.33;;;1.30;;
16514;SDS011;8370;52.556;7.970;2022-08-06T02:51:52;2.67;;;1.30;;
16514;SDS011;8370;52.556;7.970;2022-08-06T02:54:34;2.30;;;1.27;;
16514;SDS011;8370;52.556;7.970;2022-08-06T02:57:04;3.87;;;1.70;;
16514;SDS011;8370;52.556;7.970;2022-08-06T02:59:33;1.27;;;1.17;;
16514;SDS011;8370;52.556;7.970;2022-08-06T03:02:04;1.80;;;1.10;;
16514;SDS011;8370;52.556;7.970;2022-08-06T03:04:34;3.73;;;1.50;;
16514;SDS011;8370;52.556;7.970;2022-08-06T03:07:03;4.47;;;1.63;;
16514;SDS011;8370;52.556;7.970;2022-08-06T03:09:33;4.10;;;1.57;;
16514;SDS011;8370;52.556;7.970;2022-08-06T03:11:59;4.07;;;1.43;;
16514;SDS011;8370;52.556;7.970;2022-08-06T03:14:25;3.80;;;2.03;;
16514;SDS011;8370;52.556;7.970;2022-08-06T03:16:52;3.37;;;2.10;;
16514;SDS011;8370;52.556;7.970;2022-08-06T03:19:19;3.47;;;1.80;;
16514;SDS011;8370;52.556;7.970;2022-08-06T03:21:47;4.33;;;2.33;;
16514;SDS011;8370;52.556;7.970;2022-08-06T03:24:14;3.07;;;2.50;;
16514;SDS011;8370;52.556;7.970;2022-08-06T03:26:40;2.10;;;1.90;;
16514;SDS011;8370;52.556;7.970;2022-08-06T03:29:07;8.43;;;2.50;;
16514;SDS011;8370;52.556;7.970;2022-08-06T03:31:34;8.57;;;2.30;;
16514;SDS011;8370;52.556;7.970;2022-08-06T03:34:00;3.47;;;2.23;;
16514;SDS011;8370;52.556;7.970;2022-08-06T03:36:26;3.30;;;1.83;;
16514;SDS011;8370;52.556;7.970;2022-08-06T03:38:54;3.43;;;2.33;;
16514;SDS011;8370;52.556;7.970;2022-08-06T03:41:23;8.33;;;2.53;;
16514;SDS011;8370;52.556;7.970;2022-08-06T03:43:49;7.10;;;2.97;;
16514;SDS011;8370;52.556;7.970;2022-08-06T03:46:16;5.93;;;2.87;;
16514;SDS011;8370;52.556;7.970;2022-08-06T03:48:49;3.80;;;2.73;;
16514;SDS011;8370;52.556;7.970;2022-08-06T03:51:17;6.30;;;2.40;;
16514;SDS011;8370;52.556;7.970;2022-08-06T03:53:46;5.40;;;2.60;;
16514;SDS011;8370;52.556;7.970;2022-08-06T03:56:15;8.30;;;3.37;;
16514;SDS011;8370;52.556;7.970;2022-08-06T03:58:45;3.77;;;2.40;;
16514;SDS011;8370;52.556;7.970;2022-08-06T04:01:14;4.27;;;2.67;;
16514;SDS011;8370;52.556;7.970;2022-08-06T04:03:45;5.33;;;2.70;;
16514;SDS011;8370;52.556;7.970;2022-08-06T04:06:11;5.00;;;3.37;;
16514;SDS011;8370;52.556;7.970;2022-08-06T04:08:38;3.57;;;2.50;;
16514;SDS011;8370;52.556;7.970;2022-08-06T04:11:05;4.27;;;2.87;;
16514;SDS011;8370;52.556;7.970;2022-08-06T04:13:32;6.73;;;2.77;;
16514;SDS011;8370;52.556;7.970;2022-08-06T04:15:57;3.63;;;2.43;;
16514;SDS011;8370;52.556;7.970;2022-08-06T04:18:25;5.83;;;2.93;;
16514;SDS011;8370;52.556;7.970;2022-08-06T04:20:54;7.83;;;3.13;;
16514;SDS011;8370;52.556;7.970;2022-08-06T04:23:29;3.27;;;2.80;;
16514;SDS011;8370;52.556;7.970;2022-08-06T04:25:56;8.43;;;3.17;;
16514;SDS011;8370;52.556;7.970;2022-08-06T04:28:26;3.53;;;2.87;;
16514;SDS011;8370;52.556;7.970;2022-08-06T04:30:53;5.27;;;2.60;;
16514;SDS011;8370;52.556;7.970;2022-08-06T04:33:21;3.27;;;2.50;;
16514;SDS011;8370;52.556;7.970;2022-08-06T04:35:48;6.57;;;2.87;;
16514;SDS011;8370;52.556;7.970;2022-08-06T04:38:14;6.10;;;2.90;;
16514;SDS011;8370;52.556;7.970;2022-08-06T04:40:43;4.20;;;2.63;;
16514;SDS011;8370;52.556;7.970;2022-08-06T04:43:09;4.77;;;2.30;;
16514;SDS011;8370;52.556;7.970;2022-08-06T04:45:37;5.00;;;2.73;;
16514;SDS011;8370;52.556;7.970;2022-08-06T04:48:05;3.70;;;2.30;;
16514;SDS011;8370;52.556;7.970;2022-08-06T04:50:32;2.90;;;2.67;;
16514;SDS011;8370;52.556;7.970;2022-08-06T04:53:08;7.37;;;3.03;;
16514;SDS011;8370;52.556;7.970;2022-08-06T04:55:36;3.50;;;2.20;;
16514;SDS011;8370;52.556;7.970;2022-08-06T04:58:04;2.53;;;2.33;;
16514;SDS011;8370;52.556;7.970;2022-08-06T05:00:31;5.27;;;2.10;;
16514;SDS011;8370;52.556;7.970;2022-08-06T05:02:58;2.83;;;2.23;;
16514;SDS011;8370;52.556;7.970;2022-08-06T05:05:23;5.03;;;3.03;;
16514;SDS011;8370;52.556;7.970;2022-08-06T05:07:53;3.33;;;2.37;;
16514;SDS011;8370;52.556;7.970;2022-08-06T05:10:23;6.13;;;2.70;;
16514;SDS011;8370;52.556;7.970;2022-08-06T05:12:55;5.73;;;2.50;;
16514;SDS011;8370;52.556;7.970;2022-08-06T05:18:03;2.07;;;1.90;;
16514;SDS011;8370;52.556;7.970;2022-08-06T05:20:35;3.30;;;2.23;;
16514;SDS011;8370;52.556;7.970;2022-08-06T05:23:08;2.33;;;1.90;;
16514;SDS011;8370;52.556;7.970;2022-08-06T05:25:37;7.23;;;2.50;;
16514;SDS011;8370;52.556;7.970;2022-08-06T05:28:04;2.50;;;2.17;;
16514;SDS011;8370;52.556;7.970;2022-08-06T05:30:31;6.03;;;2.33;;
16514;SDS011;8370;52.556;7.970;2022-08-06T05:32:56;4.40;;;2.30;;
16514;SDS011;8370;52.556;7.970;2022-08-06T05:35:23;4.20;;;2.00;;
16514;SDS011;8370;52.556;7.970;2022-08-06T05:37:49;3.87;;;1.97;;
16514;SDS011;8370;52.556;7.970;2022-08-06T05:40:14;4.97;;;2.17;;
16514;SDS011;8370;52.556;7.970;2022-08-06T05:42:40;2.90;;;2.03;;
16514;SDS011;8370;52.556;7.970;2022-08-06T05:45:06;3.30;;;2.20;;
16514;SDS011;8370;52.556;7.970;2022-08-06T05:47:35;3.03;;;1.90;;
16514;SDS011;8370;52.556;7.970;2022-08-06T05:50:06;5.20;;;1.97;;
16514;SDS011;8370;52.556;7.970;2022-08-06T05:52:56;2.63;;;1.83;;
16514;SDS011;8370;52.556;7.970;2022-08-06T05:55:37;1.70;;;1.60;;
16514;SDS011;8370;52.556;7.970;2022-08-06T05:58:08;3.60;;;2.00;;
16514;SDS011;8370;52.556;7.970;2022-08-06T06:00:37;2.90;;;1.50;;
16514;SDS011;8370;52.556;7.970;2022-08-06T06:03:06;3.70;;;1.37;;
16514;SDS011;8370;52.556;7.970;2022-08-06T06:05:34;2.17;;;1.10;;
16514;SDS011;8370;52.556;7.970;2022-08-06T06:08:01;5.70;;;1.30;;
16514;SDS011;8370;52.556;7.970;2022-08-06T06:10:29;3.13;;;1.07;;
16514;SDS011;8370;52.556;7.970;2022-08-06T06:12:55;4.07;;;1.13;;
16514;SDS011;8370;52.556;7.970;2022-08-06T06:15:23;2.23;;;1.00;;
16514;SDS011;8370;52.556;7.970;2022-08-06T06:17:54;1.13;;;0.80;;
16514;SDS011;8370;52.556;7.970;2022-08-06T06:20:44;1.23;;;0.80;;
16514;SDS011;8370;52.556;7.970;2022-08-06T06:23:18;1.53;;;1.10;;
16514;SDS011;8370;52.556;7.970;2022-08-06T06:28:55;1.13;;;1.00;;
16514;SDS011;8370;52.556;7.970;2022-08-06T06:34:19;2.50;;;0.93;;
16514;SDS011;8370;52.556;7.970;2022-08-06T06:37:05;2.90;;;1.20;;
16514;SDS011;8370;52.556;7.970;2022-08-06T06:42:38;1.37;;;0.87;;
16514;SDS011;8370;52.556;7.970;2022-08-06T06:45:23;4.27;;;0.70;;
16514;SDS011;8370;52.556;7.970;2022-08-06T06:47:57;0.63;;;0.50;;
16514;SDS011;8370;52.556;7.970;2022-08-06T06:50:35;2.77;;;0.50;;
16514;SDS011;8370;52.556;7.970;2022-08-06T06:53:06;0.80;;;0.53;;
16514;SDS011;8370;52.556;7.970;2022-08-06T06:55:36;1.30;;;0.60;;
16514;SDS011;8370;52.556;7.970;2022-08-06T07:00:48;0.63;;;0.57;;
16514;SDS011;8370;52.556;7.970;2022-08-06T07:03:15;4.70;;;0.70;;
16514;SDS011;8370;52.556;7.970;2022-08-06T07:05:44;1.83;;;0.50;;
16514;SDS011;8370;52.556;7.970;2022-08-06T07:08:12;0.60;;;0.50;;
16514;SDS011;8370;52.556;7.970;2022-08-06T07:10:40;1.50;;;0.63;;
16514;SDS011;8370;52.556;7.970;2022-08-06T07:13:09;1.33;;;0.40;;
16514;SDS011;8370;52.556;7.970;2022-08-06T07:15:36;1.47;;;0.50;;
16514;SDS011;8370;52.556;7.970;2022-08-06T07:18:03;1.90;;;0.50;;
16514;SDS011;8370;52.556;7.970;2022-08-06T07:20:30;1.97;;;0.40;;
16514;SDS011;8370;52.556;7.970;2022-08-06T07:22:58;1.37;;;0.57;;
16514;SDS011;8370;52.556;7.970;2022-08-06T07:25:26;0.43;;;0.40;;
16514;SDS011;8370;52.556;7.970;2022-08-06T07:27:52;0.97;;;0.40;;
16514;SDS011;8370;52.556;7.970;2022-08-06T07:30:19;1.70;;;0.50;;
16514;SDS011;8370;52.556;7.970;2022-08-06T07:32:46;2.97;;;0.57;;
16514;SDS011;8370;52.556;7.970;2022-08-06T07:35:14;2.63;;;0.50;;
16514;SDS011;8370;52.556;7.970;2022-08-06T07:37:49;3.37;;;0.50;;
16514;SDS011;8370;52.556;7.970;2022-08-06T07:40:25;1.17;;;0.50;;
16514;SDS011;8370;52.556;7.970;2022-08-06T07:42:54;2.57;;;0.40;;
16514;SDS011;8370;52.556;7.970;2022-08-06T07:45:26;2.50;;;0.50;;
16514;SDS011;8370;52.556;7.970;2022-08-06T07:47:56;1.37;;;0.40;;
16514;SDS011;8370;52.556;7.970;2022-08-06T07:50:25;1.10;;;0.50;;
16514;SDS011;8370;52.556;7.970;2022-08-06T07:52:52;2.27;;;0.47;;
16514;SDS011;8370;52.556;7.970;2022-08-06T07:55:19;1.50;;;0.40;;
16514;SDS011;8370;52.556;7.970;2022-08-06T07:57:49;0.53;;;0.50;;
16514;SDS011;8370;52.556;7.970;2022-08-06T08:00:16;5.80;;;0.60;;
16514;SDS011;8370;52.556;7.970;2022-08-06T08:02:42;1.97;;;0.40;;
16514;SDS011;8370;52.556;7.970;2022-08-06T08:05:28;0.50;;;0.27;;
16514;SDS011;8370;52.556;7.970;2022-08-06T08:08:12;0.70;;;0.33;;
16514;SDS011;8370;52.556;7.970;2022-08-06T08:10:39;1.83;;;0.40;;
16514;SDS011;8370;52.556;7.970;2022-08-06T08:13:04;2.30;;;0.60;;
16514;SDS011;8370;52.556;7.970;2022-08-06T08:15:31;3.87;;;0.50;;
16514;SDS011;8370;52.556;7.970;2022-08-06T08:17:57;2.50;;;0.40;;
16514;SDS011;8370;52.556;7.970;2022-08-06T08:20:23;0.53;;;0.40;;
16514;SDS011;8370;52.556;7.970;2022-08-06T08:22:52;0.83;;;0.40;;
16514;SDS011;8370;52.556;7.970;2022-08-06T08:25:18;2.25;;;0.32;;
16514;SDS011;8370;52.556;7.970;2022-08-06T08:27:43;2.22;;;0.60;;
16514;SDS011;8370;52.556;7.970;2022-08-06T08:30:09;0.50;;;0.40;;
16514;SDS011;8370;52.556;7.970;2022-08-06T08:32:35;1.40;;;0.52;;
16514;SDS011;8370;52.556;7.970;2022-08-06T08:35:01;0.35;;;0.22;;
16514;SDS011;8370;52.556;7.970;2022-08-06T08:37:26;1.85;;;0.30;;
16514;SDS011;8370;52.556;7.970;2022-08-06T08:39:52;0.82;;;0.40;;
16514;SDS011;8370;52.556;7.970;2022-08-06T08:42:18;1.45;;;0.30;;
16514;SDS011;8370;52.556;7.970;2022-08-06T08:44:48;2.45;;;0.50;;
16514;SDS011;8370;52.556;7.970;2022-08-06T08:47:14;0.90;;;0.40;;
16514;SDS011;8370;52.556;7.970;2022-08-06T08:49:45;0.73;;;0.40;;
16514;SDS011;8370;52.556;7.970;2022-08-06T08:52:16;1.45;;;0.40;;
16514;SDS011;8370;52.556;7.970;2022-08-06T08:54:51;0.75;;;0.30;;
16514;SDS011;8370;52.556;7.970;2022-08-06T08:57:19;2.22;;;0.47;;
16514;SDS011;8370;52.556;7.970;2022-08-06T08:59:47;0.55;;;0.30;;
16514;SDS011;8370;52.556;7.970;2022-08-06T09:02:13;0.35;;;0.35;;
16514;SDS011;8370;52.556;7.970;2022-08-06T09:04:40;0.30;;;0.30;;
16514;SDS011;8370;52.556;7.970;2022-08-06T09:07:06;0.73;;;0.45;;
16514;SDS011;8370;52.556;7.970;2022-08-06T09:09:34;0.52;;;0.40;;
16514;SDS011;8370;52.556;7.970;2022-08-06T09:12:03;0.40;;;0.40;;
16514;SDS011;8370;52.556;7.970;2022-08-06T09:14:29;1.85;;;0.40;;
16514;SDS011;8370;52.556;7.970;2022-08-06T09:16:56;1.27;;;0.40;;
16514;SDS011;8370;52.556;7.970;2022-08-06T09:19:22;0.60;;;0.35;;
16514;SDS011;8370;52.556;7.970;2022-08-06T09:21:48;1.80;;;0.40;;
16514;SDS011;8370;52.556;7.970;2022-08-06T09:24:14;0.82;;;0.40;;
16514;SDS011;8370;52.556;7.970;2022-08-06T09:26:42;0.57;;;0.25;;
16514;SDS011;8370;52.556;7.970;2022-08-06T09:29:29;2.13;;;0.40;;
16514;SDS011;8370;52.556;7.970;2022-08-06T09:31:55;1.75;;;0.45;;
16514;SDS011;8370;52.556;7.970;2022-08-06T09:34:20;1.05;;;0.30;;
16514;SDS011;8370;52.556;7.970;2022-08-06T09:36:47;0.50;;;0.50;;
16514;SDS011;8370;52.556;7.970;2022-08-06T09:39:13;0.35;;;0.35;;
16514;SDS011;8370;52.556;7.970;2022-08-06T09:41:46;0.55;;;0.30;;
16514;SDS011;8370;52.556;7.970;2022-08-06T09:44:12;4.88;;;0.50;;
16514;SDS011;8370;52.556;7.970;2022-08-06T09:46:39;0.73;;;0.43;;
16514;SDS011;8370;52.556;7.970;2022-08-06T09:49:05;2.22;;;0.68;;
16514;SDS011;8370;52.556;7.970;2022-08-06T09:51:32;1.35;;;0.43;;
16514;SDS011;8370;52.556;7.970;2022-08-06T09:54:00;1.38;;;0.50;;
16514;SDS011;8370;52.556;7.970;2022-08-06T09:56:27;0.50;;;0.28;;
16514;SDS011;8370;52.556;7.970;2022-08-06T09:59:12;2.50;;;0.38;;
16514;SDS011;8370;52.556;7.970;2022-08-06T10:04:05;0.70;;;0.30;;
16514;SDS011;8370;52.556;7.970;2022-08-06T10:06:31;1.67;;;0.40;;
16514;SDS011;8370;52.556;7.970;2022-08-06T10:09:09;2.15;;;0.30;;
16514;SDS011;8370;52.556;7.970;2022-08-06T10:11:38;0.82;;;0.40;;
16514;SDS011;8370;52.556;7.970;2022-08-06T10:14:05;1.45;;;0.32;;
16514;SDS011;8370;52.556;7.970;2022-08-06T10:16:44;0.93;;;0.32;;
16514;SDS011;8370;52.556;7.970;2022-08-06T10:19:27;0.50;;;0.47;;
16514;SDS011;8370;52.556;7.970;2022-08-06T10:21:53;2.05;;;0.50;;
16514;SDS011;8370;52.556;7.970;2022-08-06T10:24:18;0.45;;;0.30;;
16514;SDS011;8370;52.556;7.970;2022-08-06T10:26:45;2.15;;;0.52;;
16514;SDS011;8370;52.556;7.970;2022-08-06T10:29:13;2.85;;;0.40;;
16514;SDS011;8370;52.556;7.970;2022-08-06T10:31:42;0.50;;;0.40;;
16514;SDS011;8370;52.556;7.970;2022-08-06T10:34:10;0.20;;;0.20;;
16514;SDS011;8370;52.556;7.970;2022-08-06T10:36:39;0.88;;;0.30;;
16514;SDS011;8370;52.556;7.970;2022-08-06T10:39:07;1.65;;;0.38;;
16514;SDS011;8370;52.556;7.970;2022-08-06T10:41:34;1.35;;;0.40;;
16514;SDS011;8370;52.556;7.970;2022-08-06T10:44:03;3.00;;;0.40;;
16514;SDS011;8370;52.556;7.970;2022-08-06T10:46:29;4.30;;;0.60;;
16514;SDS011;8370;52.556;7.970;2022-08-06T10:48:56;0.75;;;0.30;;
16514;SDS011;8370;52.556;7.970;2022-08-06T10:51:22;0.68;;;0.20;;
16514;SDS011;8370;52.556;7.970;2022-08-06T10:53:48;0.93;;;0.30;;
16514;SDS011;8370;52.556;7.970;2022-08-06T10:56:15;1.10;;;0.47;;
16514;SDS011;8370;52.556;7.970;2022-08-06T10:58:41;0.93;;;0.20;;
16514;SDS011;8370;52.556;7.970;2022-08-06T11:01:14;1.08;;;0.40;;
16514;SDS011;8370;52.556;7.970;2022-08-06T11:06:43;0.90;;;0.40;;
16514;SDS011;8370;52.556;7.970;2022-08-06T11:09:15;2.10;;;0.30;;
16514;SDS011;8370;52.556;7.970;2022-08-06T11:14:21;2.20;;;0.40;;
16514;SDS011;8370;52.556;7.970;2022-08-06T11:16:53;1.23;;;0.38;;
16514;SDS011;8370;52.556;7.970;2022-08-06T11:19:25;0.40;;;0.30;;
16514;SDS011;8370;52.556;7.970;2022-08-06T11:25:03;1.20;;;0.50;;
16514;SDS011;8370;52.556;7.970;2022-08-06T11:27:50;2.15;;;0.50;;
16514;SDS011;8370;52.556;7.970;2022-08-06T11:30:18;2.08;;;0.40;;
16514;SDS011;8370;52.556;7.970;2022-08-06T11:32:48;0.38;;;0.28;;
16514;SDS011;8370;52.556;7.970;2022-08-06T11:37:58;1.92;;;0.30;;
16514;SDS011;8370;52.556;7.970;2022-08-06T11:40:24;0.60;;;0.38;;
16514;SDS011;8370;52.556;7.970;2022-08-06T11:42:50;0.82;;;0.30;;
16514;SDS011;8370;52.556;7.970;2022-08-06T11:45:16;0.30;;;0.30;;
16514;SDS011;8370;52.556;7.970;2022-08-06T11:48:04;2.92;;;0.35;;
16514;SDS011;8370;52.556;7.970;2022-08-06T11:50:31;0.98;;;0.40;;
16514;SDS011;8370;52.556;7.970;2022-08-06T11:52:57;1.65;;;0.38;;
16514;SDS011;8370;52.556;7.970;2022-08-06T11:55:22;1.27;;;0.40;;
16514;SDS011;8370;52.556;7.970;2022-08-06T11:57:48;0.65;;;0.50;;
16514;SDS011;8370;52.556;7.970;2022-08-06T12:00:16;1.90;;;0.40;;
16514;SDS011;8370;52.556;7.970;2022-08-06T12:02:44;1.90;;;0.40;;
16514;SDS011;8370;52.556;7.970;2022-08-06T12:07:40;1.35;;;0.73;;
16514;SDS011;8370;52.556;7.970;2022-08-06T12:10:09;0.40;;;0.30;;
16514;SDS011;8370;52.556;7.970;2022-08-06T12:17:42;1.80;;;0.40;;
16514;SDS011;8370;52.556;7.970;2022-08-06T12:20:34;2.28;;;0.38;;
16514;SDS011;8370;52.556;7.970;2022-08-06T12:23:04;8.10;;;0.60;;
16514;SDS011;8370;52.556;7.970;2022-08-06T12:25:38;2.40;;;0.40;;
16514;SDS011;8370;52.556;7.970;2022-08-06T12:28:06;0.52;;;0.30;;
16514;SDS011;8370;52.556;7.970;2022-08-06T12:30:49;1.70;;;0.40;;
16514;SDS011;8370;52.556;7.970;2022-08-06T12:33:17;0.90;;;0.32;;
16514;SDS011;8370;52.556;7.970;2022-08-06T12:38:17;1.42;;;0.63;;
16514;SDS011;8370;52.556;7.970;2022-08-06T12:40:54;0.90;;;0.35;;
16514;SDS011;8370;52.556;7.970;2022-08-06T12:43:20;0.80;;;0.22;;
16514;SDS011;8370;52.556;7.970;2022-08-06T12:45:46;2.05;;;0.30;;
16514;SDS011;8370;52.556;7.970;2022-08-06T12:48:11;0.65;;;0.43;;
16514;SDS011;8370;52.556;7.970;2022-08-06T12:50:41;0.38;;;0.30;;
16514;SDS011;8370;52.556;7.970;2022-08-06T12:53:16;1.45;;;0.43;;
16514;SDS011;8370;52.556;7.970;2022-08-06T12:55:46;1.65;;;0.47;;
16514;SDS011;8370;52.556;7.970;2022-08-06T12:58:14;1.35;;;0.40;;
16514;SDS011;8370;52.556;7.970;2022-08-06T13:00:41;3.38;;;0.45;;
16514;SDS011;8370;52.556;7.970;2022-08-06T13:03:08;0.90;;;0.35;;
16514;SDS011;8370;52.556;7.970;2022-08-06T13:05:35;2.13;;;0.40;;
16514;SDS011;8370;52.556;7.970;2022-08-06T13:08:02;1.65;;;0.40;;
16514;SDS011;8370;52.556;7.970;2022-08-06T13:10:28;0.60;;;0.40;;
16514;SDS011;8370;52.556;7.970;2022-08-06T13:12:54;3.88;;;0.60;;
16514;SDS011;8370;52.556;7.970;2022-08-06T13:15:28;1.02;;;0.40;;
16514;SDS011;8370;52.556;7.970;2022-08-06T13:23:11;0.40;;;0.28;;
16514;SDS011;8370;52.556;7.970;2022-08-06T13:25:39;0.90;;;0.38;;
16514;SDS011;8370;52.556;7.970;2022-08-06T13:28:09;1.02;;;0.57;;
16514;SDS011;8370;52.556;7.970;2022-08-06T13:30:37;3.75;;;0.60;;
16514;SDS011;8370;52.556;7.970;2022-08-06T13:33:12;2.40;;;0.50;;
16514;SDS011;8370;52.556;7.970;2022-08-06T13:35:39;1.45;;;0.65;;
16514;SDS011;8370;52.556;7.970;2022-08-06T13:38:04;1.92;;;0.50;;
16514;SDS011;8370;52.556;7.970;2022-08-06T13:40:46;1.73;;;0.65;;
16514;SDS011;8370;52.556;7.970;2022-08-06T13:43:13;2.22;;;0.65;;
16514;SDS011;8370;52.556;7.970;2022-08-06T13:45:39;3.50;;;0.85;;
16514;SDS011;8370;52.556;7.970;2022-08-06T13:48:06;2.17;;;0.85;;
16514;SDS011;8370;52.556;7.970;2022-08-06T13:50:37;3.78;;;0.60;;
16514;SDS011;8370;52.556;7.970;2022-08-06T13:53:06;0.77;;;0.65;;
16514;SDS011;8370;52.556;7.970;2022-08-06T13:55:33;4.07;;;0.70;;
16514;SDS011;8370;52.556;7.970;2022-08-06T13:57:59;2.30;;;0.82;;
16514;SDS011;8370;52.556;7.970;2022-08-06T14:00:24;3.40;;;0.90;;
16514;SDS011;8370;52.556;7.970;2022-08-06T14:02:51;2.72;;;0.60;;
16514;SDS011;8370;52.556;7.970;2022-08-06T14:05:17;0.65;;;0.60;;
16514;SDS011;8370;52.556;7.970;2022-08-06T14:07:43;2.28;;;0.70;;
16514;SDS011;8370;52.556;7.970;2022-08-06T14:10:08;1.98;;;0.60;;
16514;SDS011;8370;52.556;7.970;2022-08-06T14:12:35;2.63;;;0.95;;
16514;SDS011;8370;52.556;7.970;2022-08-06T14:15:01;1.85;;;0.68;;
16514;SDS011;8370;52.556;7.970;2022-08-06T14:17:26;1.35;;;0.70;;
16514;SDS011;8370;52.556;7.970;2022-08-06T14:19:52;2.13;;;0.60;;
16514;SDS011;8370;52.556;7.970;2022-08-06T14:22:17;4.22;;;1.27;;
16514;SDS011;8370;52.556;7.970;2022-08-06T14:24:43;2.53;;;0.70;;
16514;SDS011;8370;52.556;7.970;2022-08-06T14:27:09;2.00;;;0.47;;
16514;SDS011;8370;52.556;7.970;2022-08-06T14:29:35;1.73;;;0.68;;
16514;SDS011;8370;52.556;7.970;2022-08-06T14:32:02;2.70;;;0.68;;
16514;SDS011;8370;52.556;7.970;2022-08-06T14:34:28;1.10;;;0.55;;
16514;SDS011;8370;52.556;7.970;2022-08-06T14:36:53;2.10;;;0.60;;
16514;SDS011;8370;52.556;7.970;2022-08-06T14:39:19;1.13;;;0.60;;
16514;SDS011;8370;52.556;7.970;2022-08-06T14:41:44;1.27;;;0.70;;
16514;SDS011;8370;52.556;7.970;2022-08-06T14:44:28;2.13;;;0.68;;
16514;SDS011;8370;52.556;7.970;2022-08-06T14:47:12;1.20;;;0.50;;
16514;SDS011;8370;52.556;7.970;2022-08-06T14:49:38;0.55;;;0.50;;
16514;SDS011;8370;52.556;7.970;2022-08-06T14:52:06;2.92;;;0.70;;
16514;SDS011;8370;52.556;7.970;2022-08-06T14:54:32;2.40;;;0.50;;
16514;SDS011;8370;52.556;7.970;2022-08-06T14:56:59;2.53;;;0.57;;
16514;SDS011;8370;52.556;7.970;2022-08-06T14:59:26;3.30;;;0.57;;
16514;SDS011;8370;52.556;7.970;2022-08-06T15:01:51;1.98;;;0.90;;
16514;SDS011;8370;52.556;7.970;2022-08-06T15:04:18;2.67;;;0.60;;
16514;SDS011;8370;52.556;7.970;2022-08-06T15:06:44;0.68;;;0.68;;
16514;SDS011;8370;52.556;7.970;2022-08-06T15:09:09;1.27;;;0.50;;
16514;SDS011;8370;52.556;7.970;2022-08-06T15:11:36;2.83;;;0.80;;
16514;SDS011;8370;52.556;7.970;2022-08-06T15:14:02;0.57;;;0.57;;
16514;SDS011;8370;52.556;7.970;2022-08-06T15:16:27;0.68;;;0.50;;
16514;SDS011;8370;52.556;7.970;2022-08-06T15:18:53;1.15;;;0.60;;
16514;SDS011;8370;52.556;7.970;2022-08-06T15:21:19;1.65;;;0.73;;
16514;SDS011;8370;52.556;7.970;2022-08-06T15:23:45;4.38;;;0.95;;
16514;SDS011;8370;52.556;7.970;2022-08-06T15:26:11;1.88;;;0.50;;
16514;SDS011;8370;52.556;7.970;2022-08-06T15:28:36;0.65;;;0.65;;
16514;SDS011;8370;52.556;7.970;2022-08-06T15:31:02;1.73;;;0.57;;
16514;SDS011;8370;52.556;7.970;2022-08-06T15:33:28;2.70;;;0.77;;
16514;SDS011;8370;52.556;7.970;2022-08-06T15:35:54;0.50;;;0.40;;
16514;SDS011;8370;52.556;7.970;2022-08-06T15:38:20;2.90;;;0.80;;
16514;SDS011;8370;52.556;7.970;2022-08-06T15:40:46;1.10;;;0.57;;
16514;SDS011;8370;52.556;7.970;2022-08-06T15:43:11;3.63;;;0.52;;
16514;SDS011;8370;52.556;7.970;2022-08-06T15:45:37;1.08;;;0.60;;
16514;SDS011;8370;52.556;7.970;2022-08-06T15:48:03;2.92;;;0.80;;
16514;SDS011;8370;52.556;7.970;2022-08-06T15:50:28;1.65;;;0.60;;
16514;SDS011;8370;52.556;7.970;2022-08-06T15:52:54;1.52;;;0.63;;
16514;SDS011;8370;52.556;7.970;2022-08-06T15:55:20;1.10;;;0.50;;
16514;SDS011;8370;52.556;7.970;2022-08-06T15:57:46;2.45;;;0.77;;
16514;SDS011;8370;52.556;7.970;2022-08-06T16:00:12;0.63;;;0.60;;
16514;SDS011;8370;52.556;7.970;2022-08-06T16:02:46;1.92;;;0.50;;